createdAt,value
2023-05-20T00:00:00.910Z,2.5
2023-05-20T00:02:00.588Z,2.5
2023-05-20T00:04:01.147Z,2.5
2023-05-20T00:06:00.475Z,2.3
2023-05-20T00:08:00.917Z,2.6
2023-05-20T00:10:00.871Z,2.7
2023-05-20T00:12:00.409Z,2.5
2023-05-20T00:14:00.535Z,2.5
2023-05-20T00:16:00.715Z,2.5
2023-05-20T00:18:01.569Z,2.4
2023-05-20T00:20:00.916Z,2.4
2023-05-20T00:22:01.002Z,2.5
2023-05-20T00:24:00.502Z,2.5
2023-05-20T00:26:00.816Z,2.3
2023-05-20T00:28:01.062Z,2.3
2023-05-20T00:30:00.407Z,2.5
2023-05-20T00:32:00.921Z,2.0
2023-05-20T00:34:00.404Z,2.2
2023-05-20T00:36:00.851Z,2.3
2023-05-20T00:38:00.520Z,2.0
2023-05-20T00:40:00.855Z,2.4
2023-05-20T00:42:00.622Z,2.4
2023-05-20T00:44:00.870Z,2.2
2023-05-20T00:46:00.650Z,2.1
2023-05-20T00:48:01.250Z,2.2
2023-05-20T00:50:00.919Z,2.2
2023-05-20T00:52:00.970Z,2.1
2023-05-20T00:54:00.575Z,2.3
2023-05-20T00:56:01.332Z,2.3
2023-05-20T00:58:00.831Z,2.2
2023-05-20T01:00:00.593Z,2.5
2023-05-20T01:02:01.469Z,2.6
2023-05-20T01:04:01.767Z,2.2
2023-05-20T01:06:01.494Z,2.3
2023-05-20T01:08:00.898Z,2.2
2023-05-20T01:10:01.164Z,2.1
2023-05-20T01:12:05.806Z,2.2
2023-05-20T01:14:05.469Z,2.5
2023-05-20T01:16:02.970Z,2.4
2023-05-20T01:18:02.603Z,2.4
2023-05-20T01:20:00.705Z,2.3
2023-05-20T01:22:04.705Z,2.5
2023-05-20T01:24:00.589Z,2.6
2023-05-20T01:26:00.493Z,2.5
2023-05-20T01:28:01.030Z,2.3
2023-05-20T01:30:00.588Z,2.4
2023-05-20T01:32:04.008Z,2.5
2023-05-20T01:34:01.767Z,2.6
2023-05-20T01:36:01.299Z,2.6
2023-05-20T01:38:04.021Z,2.5
2023-05-20T01:40:02.312Z,2.5
2023-05-20T01:42:01.330Z,2.6
2023-05-20T01:44:00.940Z,2.6
2023-05-20T01:46:00.784Z,2.5
2023-05-20T01:48:01.476Z,2.9
2023-05-20T01:50:00.558Z,2.8
2023-05-20T01:52:00.977Z,2.8
2023-05-20T01:54:00.402Z,2.7
2023-05-20T01:56:00.574Z,2.9
2023-05-20T01:58:00.771Z,2.8
2023-05-20T02:00:00.984Z,2.7
2023-05-20T02:02:00.407Z,2.4
2023-05-20T02:04:00.928Z,2.7
2023-05-20T02:06:00.898Z,2.6
2023-05-20T02:08:00.572Z,2.9
2023-05-20T02:10:00.647Z,2.7
2023-05-20T02:12:00.645Z,2.9
2023-05-20T02:14:00.467Z,2.8
2023-05-20T02:16:01.125Z,3.0
2023-05-20T02:18:00.991Z,3.1
2023-05-20T02:20:00.467Z,2.6
2023-05-20T02:22:00.971Z,3.0
2023-05-20T02:24:00.411Z,2.8
2023-05-20T02:26:00.922Z,2.9
2023-05-20T02:28:00.876Z,2.9
2023-05-20T02:30:00.459Z,3.1
2023-05-20T02:32:00.566Z,3.0
2023-05-20T02:34:01.027Z,2.7
2023-05-20T02:36:00.641Z,3.0
2023-05-20T02:38:00.644Z,3.4
2023-05-20T02:40:00.940Z,3.2
2023-05-20T02:42:00.507Z,3.0
2023-05-20T02:44:01.147Z,3.0
2023-05-20T02:46:00.502Z,3.2
2023-05-20T02:48:00.756Z,3.3
2023-05-20T02:50:00.404Z,2.6
2023-05-20T02:52:00.804Z,3.0
2023-05-20T02:54:00.420Z,3.1
2023-05-20T02:56:00.421Z,3.6
2023-05-20T02:58:00.733Z,3.1
2023-05-20T03:00:00.449Z,3.6
2023-05-20T03:02:00.640Z,3.4
2023-05-20T03:04:01.571Z,3.5
2023-05-20T03:06:00.419Z,3.3
2023-05-20T03:08:00.510Z,3.2
2023-05-20T03:10:00.560Z,3.3
2023-05-20T03:12:00.551Z,3.7
2023-05-20T03:14:00.428Z,3.7
2023-05-20T03:16:01.154Z,3.5
2023-05-20T03:18:00.647Z,3.5
2023-05-20T03:20:00.695Z,3.2
2023-05-20T03:22:00.635Z,3.5
2023-05-20T03:24:00.759Z,3.0
2023-05-20T03:26:00.599Z,3.2
2023-05-20T03:28:00.741Z,3.5
2023-05-20T03:30:00.404Z,3.5
2023-05-20T03:32:00.635Z,3.5
2023-05-20T03:34:00.390Z,3.5
2023-05-20T03:36:00.538Z,3.4
2023-05-20T03:38:00.519Z,3.1
2023-05-20T03:40:00.961Z,3.3
2023-05-20T03:42:00.565Z,3.6
2023-05-20T03:44:00.702Z,3.7
2023-05-20T03:46:00.620Z,3.6
2023-05-20T03:48:00.583Z,3.3
2023-05-20T03:50:00.475Z,3.8
2023-05-20T03:52:00.920Z,3.7
2023-05-20T03:54:00.404Z,3.5
2023-05-20T03:56:01.127Z,3.6
2023-05-20T03:58:00.396Z,3.4
2023-05-20T04:00:00.422Z,3.6
2023-05-20T04:02:00.592Z,3.6
2023-05-20T04:04:00.871Z,3.2
2023-05-20T04:06:00.558Z,3.5
2023-05-20T04:08:00.574Z,3.4
2023-05-20T04:10:00.575Z,4.1
2023-05-20T04:12:00.585Z,3.6
2023-05-20T04:14:00.741Z,3.3
2023-05-20T04:16:00.867Z,3.7
2023-05-20T04:18:00.429Z,3.5
2023-05-20T04:20:00.527Z,3.4
2023-05-20T04:22:00.657Z,3.4
2023-05-20T04:24:00.411Z,3.6
2023-05-20T04:26:00.734Z,3.6
2023-05-20T04:28:00.950Z,3.4
2023-05-20T04:30:00.417Z,3.6
2023-05-20T04:32:00.529Z,3.7
2023-05-20T04:34:00.503Z,3.2
2023-05-20T04:36:00.415Z,3.6
2023-05-20T04:38:00.698Z,3.6
2023-05-20T04:40:00.772Z,3.7
2023-05-20T04:42:00.511Z,3.6
2023-05-20T04:44:00.445Z,3.6
2023-05-20T04:46:00.668Z,3.8
2023-05-20T04:48:00.453Z,3.9
2023-05-20T04:50:00.936Z,3.5
2023-05-20T04:52:00.734Z,4.0
2023-05-20T04:54:00.751Z,4.0
2023-05-20T04:56:00.397Z,4.3
2023-05-20T04:58:00.571Z,3.9
2023-05-20T05:00:00.918Z,4.1
2023-05-20T05:02:00.615Z,3.9
2023-05-20T05:04:01.167Z,4.0
2023-05-20T05:06:00.838Z,4.0
2023-05-20T05:08:00.647Z,4.0
2023-05-20T05:10:00.636Z,4.5
2023-05-20T05:12:01.547Z,4.2
2023-05-20T05:14:00.405Z,4.3
2023-05-20T05:16:01.466Z,4.6
2023-05-20T05:18:01.010Z,4.4
2023-05-20T05:20:00.557Z,4.5
2023-05-20T05:22:00.592Z,4.2
2023-05-20T05:24:00.401Z,4.4
2023-05-20T05:26:00.685Z,4.3
2023-05-20T05:28:00.850Z,4.6
2023-05-20T05:30:00.989Z,4.4
2023-05-20T05:32:00.643Z,4.6
2023-05-20T05:34:00.413Z,4.7
2023-05-20T05:36:00.421Z,4.5
2023-05-20T05:38:00.460Z,4.9
2023-05-20T05:40:00.807Z,4.7
2023-05-20T05:42:00.583Z,4.9
2023-05-20T05:44:00.686Z,4.9
2023-05-20T05:46:00.533Z,5.0
2023-05-20T05:48:00.650Z,4.9
2023-05-20T05:50:00.561Z,4.7
2023-05-20T05:52:01.036Z,5.1
2023-05-20T05:54:00.389Z,5.1
2023-05-20T05:56:00.777Z,5.2
2023-05-20T05:58:00.436Z,5.1
2023-05-20T06:00:00.752Z,5.0
2023-05-20T06:02:00.443Z,5.5
2023-05-20T06:04:01.011Z,5.1
2023-05-20T06:06:00.411Z,5.4
2023-05-20T06:08:01.131Z,5.7
2023-05-20T06:10:00.449Z,5.5
2023-05-20T06:12:00.835Z,5.4
2023-05-20T06:14:00.905Z,5.7
2023-05-20T06:16:01.093Z,5.3
2023-05-20T06:18:00.623Z,6.0
2023-05-20T06:20:01.246Z,6.2
2023-05-20T06:22:01.041Z,6.3
2023-05-20T06:24:00.389Z,6.0
2023-05-20T06:26:00.656Z,5.9
2023-05-20T06:28:00.813Z,5.6
2023-05-20T06:30:00.659Z,5.6
2023-05-20T06:32:00.642Z,6.3
2023-05-20T06:34:00.874Z,6.3
2023-05-20T06:36:00.523Z,6.1
2023-05-20T06:38:01.668Z,6.5
2023-05-20T06:40:00.798Z,6.4
2023-05-20T06:42:00.401Z,6.8
2023-05-20T06:44:00.384Z,6.6
2023-05-20T06:46:00.544Z,7.0
2023-05-20T06:48:00.672Z,6.3
2023-05-20T06:50:00.806Z,7.2
2023-05-20T06:52:00.943Z,6.7
2023-05-20T06:54:00.771Z,7.3
2023-05-20T06:56:00.915Z,7.0
2023-05-20T06:58:00.571Z,7.5
2023-05-20T07:00:00.790Z,7.4
2023-05-20T07:02:01.078Z,7.2
2023-05-20T07:04:00.776Z,7.0
2023-05-20T07:06:00.589Z,7.3
2023-05-20T07:08:02.230Z,8.0
2023-05-20T07:10:01.507Z,7.7
2023-05-20T07:12:01.061Z,7.7
2023-05-20T07:14:00.530Z,7.9
2023-05-20T07:16:00.871Z,8.4
2023-05-20T07:18:00.631Z,7.8
2023-05-20T07:20:00.508Z,7.6
2023-05-20T07:22:00.478Z,7.8
2023-05-20T07:24:01.195Z,8.7
2023-05-20T07:26:00.421Z,8.3
2023-05-20T07:28:00.940Z,8.5
2023-05-20T07:30:00.900Z,8.4
2023-05-20T07:32:00.722Z,8.4
2023-05-20T07:34:01.101Z,8.6
2023-05-20T07:36:00.593Z,8.6
2023-05-20T07:38:00.872Z,8.4
2023-05-20T07:40:00.779Z,8.1
2023-05-20T07:42:00.430Z,8.6
